Time;durP1;ratioP1;P1;durP2;ratioP2;P2;SDS_P1;SDS_P2;PMS_P1;PMS_P2;Temp;Humidity;BMP_temperature;BMP_pressure;BME280_temperature;BME280_humidity;BME280_pressure;Samples;Min_cycle;Max_cycle;Signal;HPM_P1;HPM_P2
2023/04/04 00:00:25;;;;;;;8.27;3.10;;;;;;;-145.18;100.00;47756.38;6182284;23;20021;-82
2023/04/04 00:02:50;;;;;;;6.13;2.50;;;;;;;-145.18;100.00;47758.31;6181281;23;20005;-81
2023/04/04 00:05:15;;;;;;;5.70;2.30;;;;;;;-145.18;100.00;47744.66;6155150;23;20025;-81
2023/04/04 00:07:41;;;;;;;6.10;2.47;;;;;;;-145.18;100.00;47768.09;6181331;23;20016;-81
2023/04/04 00:10:07;;;;;;;11.77;2.47;;;;;;;-145.18;100.00;47768.09;6182363;23;20088;-81
2023/04/04 00:12:33;;;;;;;6.78;2.72;;;;;;;-145.18;100.00;47746.59;6181429;23;20037;-81
2023/04/04 00:14:58;;;;;;;7.63;3.10;;;;;;;-145.18;100.00;47772.00;6181560;23;20020;-82
2023/04/04 00:17:23;;;;;;;7.53;2.90;;;;;;;-145.18;100.00;47772.00;6181315;23;20020;-81
2023/04/04 00:19:49;;;;;;;6.23;2.43;;;;;;;-145.18;100.00;47772.00;6181609;23;20035;-80
2023/04/04 00:22:14;;;;;;;7.60;2.70;;;;;;;-145.18;100.00;47762.22;6183093;23;20446;-81
2023/04/04 00:24:40;;;;;;;4.40;2.43;;;;;;;-145.18;100.00;47768.09;6183721;23;20040;-80
2023/04/04 00:27:05;;;;;;;7.73;2.47;;;;;;;-145.18;100.00;47795.44;6183256;23;20088;-80
2023/04/04 00:29:33;;;;;;;6.70;2.40;;;;;;;-145.18;100.00;47772.00;6183644;23;20399;-81
2023/04/04 00:31:58;;;;;;;5.30;2.00;;;;;;;-145.18;100.00;47773.97;6182265;23;20421;-81
2023/04/04 00:34:24;;;;;;;5.33;2.23;;;;;;;-145.18;100.00;47770.03;6183636;23;20016;-81
2023/04/04 00:36:49;;;;;;;4.73;2.20;;;;;;;-145.18;100.00;47770.03;6183235;23;20375;-81
2023/04/04 00:39:15;;;;;;;8.50;2.70;;;;;;;-145.18;100.00;47768.09;6183694;23;20045;-80
2023/04/04 00:41:40;;;;;;;7.73;2.40;;;;;;;-145.18;100.00;47768.09;6183256;23;20489;-80
2023/04/04 00:44:06;;;;;;;7.87;3.00;;;;;;;-145.18;100.00;47777.88;6183308;23;20009;-81
2023/04/04 00:46:31;;;;;;;9.97;2.90;;;;;;;-145.18;100.00;47746.59;6183052;23;20497;-80
2023/04/04 00:48:58;;;;;;;5.87;2.57;;;;;;;-145.18;100.00;47795.44;6183444;23;20087;-81
2023/04/04 00:51:23;;;;;;;6.07;2.53;;;;;;;-145.18;100.00;47766.13;6182944;23;20522;-80
2023/04/04 00:53:50;;;;;;;5.17;2.13;;;;;;;-145.18;100.00;47768.09;6183092;23;20016;-81
2023/04/04 00:56:15;;;;;;;7.03;2.85;;;;;;;-145.18;100.00;47785.69;6183207;23;20004;-81
2023/04/04 00:58:43;;;;;;;11.67;2.60;;;;;;;-145.18;100.00;47779.81;6183193;23;20009;-81
2023/04/04 01:01:11;;;;;;;5.57;2.42;;;;;;;-145.18;100.00;47801.31;6182816;23;20028;-81
2023/04/04 01:03:38;;;;;;;8.45;2.70;;;;;;;-145.18;100.00;47783.72;6183234;23;20012;-81
2023/04/04 01:06:05;;;;;;;8.30;2.47;;;;;;;-145.18;100.00;47801.31;6182965;23;20017;-81
2023/04/04 01:08:31;;;;;;;5.22;2.22;;;;;;;-145.18;100.00;47795.44;6183294;23;20005;-81
2023/04/04 01:10:57;;;;;;;9.48;2.97;;;;;;;-145.18;100.00;47803.25;6182419;23;20100;-81
2023/04/04 01:13:23;;;;;;;7.47;2.77;;;;;;;-145.18;100.00;47789.59;6183327;23;20029;-80
2023/04/04 01:15:48;;;;;;;7.97;2.60;;;;;;;-145.18;100.00;47816.94;6182987;23;20009;-80
2023/04/04 01:18:17;;;;;;;10.47;2.77;;;;;;;-145.18;100.00;47803.25;6183124;23;20511;-81
2023/04/04 01:20:56;;;;;;;8.10;2.75;;;;;;;-145.18;100.00;47824.75;6183096;23;20004;-81
2023/04/04 01:23:29;;;;;;;9.00;2.50;;;;;;;-145.18;100.00;47846.25;6182796;23;20419;-81
2023/04/04 01:26:04;;;;;;;6.22;2.72;;;;;;;-145.18;100.00;47803.25;6183025;23;20008;-81
2023/04/04 01:28:29;;;;;;;9.02;2.83;;;;;;;-145.18;100.00;47830.63;6182883;23;20013;-81
2023/04/04 01:30:59;;;;;;;6.10;2.63;;;;;;;-145.18;100.00;47795.44;6182352;23;20457;-81
2023/04/04 01:33:33;;;;;;;5.43;2.75;;;;;;;-145.18;100.00;47811.09;6181812;23;19997;-81
2023/04/04 01:36:12;;;;;;;6.40;2.42;;;;;;;-145.18;100.00;47828.66;6183061;23;20012;-80
2023/04/04 01:38:47;;;;;;;7.55;2.75;;;;;;;-145.18;100.00;47803.25;6182634;23;20009;-80
2023/04/04 01:41:14;;;;;;;8.60;2.75;;;;;;;-145.18;100.00;47809.13;6183221;23;20316;-80
2023/04/04 01:43:43;;;;;;;5.72;2.42;;;;;;;-145.18;100.00;47813.03;6182322;23;20475;-80
2023/04/04 01:46:09;;;;;;;8.32;2.90;;;;;;;-145.18;100.00;47832.56;6182837;23;20092;-80
2023/04/04 01:48:34;;;;;;;6.80;2.67;;;;;;;-145.18;100.00;47828.66;6182621;23;20097;-80
2023/04/04 01:51:01;;;;;;;9.40;3.03;;;;;;;-145.18;100.00;47846.25;6182549;23;20024;-81
2023/04/04 01:53:26;;;;;;;8.63;3.08;;;;;;;-145.18;100.00;47822.81;6182616;23;20427;-81
2023/04/04 01:55:53;;;;;;;6.37;2.97;;;;;;;-145.18;100.00;47820.84;6182642;23;20033;-81
2023/04/04 01:58:18;;;;;;;7.10;2.85;;;;;;;-145.18;100.00;47820.84;6182705;23;20013;-81
2023/04/04 02:03:19;;;;;;;9.20;2.60;;;;;;;-145.18;100.00;47791.53;6158089;23;20031;-81
2023/04/04 02:05:45;;;;;;;7.07;2.30;;;;;;;-145.18;100.00;47736.84;6182728;23;20021;-81
2023/04/04 02:08:11;;;;;;;4.93;2.50;;;;;;;-145.18;100.00;47670.41;6182010;23;20012;-81
2023/04/04 02:10:36;;;;;;;8.57;3.00;;;;;;;-145.18;100.00;47603.97;6182992;23;20001;-81
2023/04/04 02:13:01;;;;;;;5.97;2.40;;;;;;;-145.18;100.00;47656.72;6182994;23;20247;-81
2023/04/04 02:15:27;;;;;;;7.00;2.57;;;;;;;-145.18;100.00;47633.28;6183254;23;20473;-81
2023/04/04 02:17:52;;;;;;;10.80;2.93;;;;;;;-145.18;100.00;47607.88;6181454;23;20009;-81
2023/04/04 02:20:18;;;;;;;7.93;2.77;;;;;;;-145.18;100.00;47521.91;6183364;23;20032;-82
2023/04/04 02:22:50;;;;;;;8.13;3.00;;;;;;;-145.18;100.00;47656.72;6182503;23;20008;-82
2023/04/04 02:25:15;;;;;;;5.82;2.55;;;;;;;-145.18;100.00;47674.31;6183259;23;20070;-81
2023/04/04 02:27:41;;;;;;;6.67;2.80;;;;;;;-145.18;100.00;47672.34;6182638;23;20088;-82
2023/04/04 02:30:07;;;;;;;8.13;3.33;;;;;;;-145.18;100.00;47496.50;6182964;23;20029;-80
2023/04/04 02:32:32;;;;;;;9.17;3.40;;;;;;;-145.18;100.00;47351.94;6181786;23;20019;-80
2023/04/04 02:34:57;;;;;;;6.60;2.83;;;;;;;-145.18;100.00;47332.41;6183104;23;20005;-80
2023/04/04 02:37:23;;;;;;;10.50;3.60;;;;;;;-145.18;100.00;47246.44;6183063;23;20334;-80
2023/04/04 02:39:48;;;;;;;7.03;3.40;;;;;;;-145.18;100.00;47195.66;6182431;23;20013;-80
2023/04/04 02:42:14;;;;;;;11.60;3.60;;;;;;;-145.18;100.00;47221.03;6182594;23;20063;-80
2023/04/04 02:44:39;;;;;;;9.30;3.13;;;;;;;-145.18;100.00;47195.66;6182336;23;20013;-80
2023/04/04 02:47:05;;;;;;;7.60;3.10;;;;;;;-145.18;100.00;47164.38;6182801;23;20033;-80
2023/04/04 02:49:30;;;;;;;10.82;3.42;;;;;;;-145.18;100.00;47123.38;6182741;23;20381;-81
2023/04/04 02:51:56;;;;;;;5.87;2.73;;;;;;;-145.18;100.00;47107.72;6181831;23;20009;-81
2023/04/04 02:54:21;;;;;;;7.87;3.40;;;;;;;-145.18;100.00;47088.19;6182962;23;20009;-79
2023/04/04 02:56:47;;;;;;;8.77;3.57;;;;;;;-145.18;100.00;47111.66;6182172;23;20135;-79
2023/04/04 02:59:12;;;;;;;7.47;3.27;;;;;;;-145.18;100.00;47131.19;6182407;23;20088;-79
2023/04/04 03:01:37;;;;;;;5.33;2.73;;;;;;;-145.18;100.00;47094.06;6182285;23;20008;-79
2023/04/04 03:04:04;;;;;;;7.90;3.10;;;;;;;-145.18;100.00;47099.91;6182469;23;20088;-79
2023/04/04 03:06:32;;;;;;;4.93;2.83;;;;;;;-145.18;100.00;47062.81;6182488;23;20009;-79
2023/04/04 03:08:58;;;;;;;7.68;3.65;;;;;;;-145.18;100.00;47113.59;6182433;23;20024;-79
2023/04/04 03:11:23;;;;;;;10.10;4.37;;;;;;;-145.18;100.00;47140.94;6182313;23;20439;-78
2023/04/04 03:13:50;;;;;;;10.47;5.40;;;;;;;-145.18;100.00;47101.88;6180213;23;20049;-78
2023/04/04 03:16:18;;;;;;;9.18;4.65;;;;;;;-145.18;100.00;47109.69;6183032;23;20012;-78
2023/04/04 03:18:43;;;;;;;8.00;3.60;;;;;;;-145.18;100.00;47099.91;6181908;23;20044;-78
2023/04/04 03:21:09;;;;;;;9.63;3.20;;;;;;;-145.18;100.00;47144.84;6182328;23;20119;-78
2023/04/04 03:23:34;;;;;;;11.40;3.33;;;;;;;-145.18;100.00;47168.28;6182028;23;20488;-77
2023/04/04 03:26:00;;;;;;;6.80;2.93;;;;;;;-145.18;100.00;47219.09;6182511;23;20013;-78
2023/04/04 03:28:26;;;;;;;10.50;3.35;;;;;;;-145.18;100.00;47258.16;6182027;23;20017;-78
2023/04/04 03:30:51;;;;;;;10.47;3.53;;;;;;;-145.18;100.00;47260.13;6181958;23;20105;-77
2023/04/04 03:33:18;;;;;;;10.80;3.50;;;;;;;-145.18;100.00;47189.78;6181331;23;20009;-77
2023/04/04 03:35:43;;;;;;;8.32;2.90;;;;;;;-145.18;100.00;47127.28;6182252;23;20009;-77
2023/04/04 03:38:09;;;;;;;10.37;3.53;;;;;;;-145.18;100.00;47072.56;6181831;23;20342;-77
2023/04/04 03:40:35;;;;;;;8.05;3.40;;;;;;;-145.18;100.00;47023.72;6182182;23;20001;-77
2023/04/04 03:43:04;;;;;;;7.73;3.30;;;;;;;-145.18;100.00;47019.81;6182204;23;20011;-76
2023/04/04 03:45:33;;;;;;;9.43;3.65;;;;;;;-145.18;100.00;47025.69;6182283;23;20020;-76
2023/04/04 03:47:58;;;;;;;11.00;3.70;;;;;;;-145.18;100.00;47049.13;6182056;23;20466;-77
2023/04/04 03:50:24;;;;;;;10.90;3.83;;;;;;;-145.18;100.00;47043.28;6182019;23;20009;-76
2023/04/04 03:52:49;;;;;;;6.87;3.43;;;;;;;-145.18;100.00;47047.19;6181424;23;20430;-76
2023/04/04 03:55:15;;;;;;;7.27;3.63;;;;;;;-145.18;100.00;47068.66;6182624;23;20063;-76
2023/04/04 03:57:40;;;;;;;8.40;3.50;;;;;;;-145.18;100.00;47043.28;6185574;23;20010;-77
2023/04/04 04:00:06;;;;;;;10.43;3.87;;;;;;;-145.18;100.00;47004.19;6185752;23;20682;-76
2023/04/04 04:02:31;;;;;;;13.30;4.13;;;;;;;-145.18;100.00;46965.13;6184736;23;20036;-77
2023/04/04 04:04:57;;;;;;;10.30;3.77;;;;;;;-145.18;100.00;46929.97;6185772;23;20273;-77
2023/04/04 04:07:23;;;;;;;13.38;4.97;;;;;;;-145.18;100.00;46920.19;6185787;23;20354;-76
2023/04/04 04:09:48;;;;;;;11.47;3.60;;;;;;;-145.18;100.00;46914.34;6185163;23;20059;-76
2023/04/04 04:12:14;;;;;;;7.20;3.70;;;;;;;-145.18;100.00;46910.44;6185025;23;20092;-75
2023/04/04 04:14:39;;;;;;;7.43;3.67;;;;;;;-145.18;100.00;46883.09;6185370;23;20013;-74
2023/04/04 04:17:05;;;;;;;8.17;3.60;;;;;;;-145.18;100.00;46849.88;6181399;23;20084;-74
2023/04/04 04:19:30;;;;;;;10.23;4.03;;;;;;;-145.18;100.00;46894.81;6184302;23;20013;-74
2023/04/04 04:21:56;;;;;;;12.03;4.43;;;;;;;-145.18;100.00;46904.56;6184985;23;20001;-74
2023/04/04 04:24:21;;;;;;;10.80;4.40;;;;;;;-145.18;100.00;46908.47;6185172;23;20005;-74
2023/04/04 04:26:46;;;;;;;11.37;4.30;;;;;;;-145.18;100.00;46898.72;6184122;23;20056;-75
2023/04/04 04:29:12;;;;;;;12.30;5.30;;;;;;;-145.18;100.00;46908.47;6184217;23;20001;-76
2023/04/04 04:31:38;;;;;;;13.87;5.03;;;;;;;-145.18;100.00;46922.16;6184221;23;20013;-75
2023/04/04 04:34:10;;;;;;;10.40;4.75;;;;;;;-145.18;100.00;46914.34;6182136;23;20023;-75
2023/04/04 04:36:36;;;;;;;10.73;4.40;;;;;;;-145.18;100.00;46926.06;6184803;23;20001;-74
2023/04/04 04:39:01;;;;;;;14.30;5.20;;;;;;;-145.18;100.00;46939.72;6184637;23;20059;-74
2023/04/04 04:41:30;;;;;;;13.30;4.20;;;;;;;-145.18;100.00;46914.34;6184898;23;20449;-74
2023/04/04 04:43:55;;;;;;;13.27;5.47;;;;;;;-145.18;100.00;46910.44;6184956;23;20001;-75
2023/04/04 04:46:21;;;;;;;10.00;4.90;;;;;;;-145.18;100.00;46910.44;6185173;23;20001;-75
2023/04/04 04:48:46;;;;;;;11.07;4.97;;;;;;;-145.18;100.00;46908.47;6184991;23;20005;-75
2023/04/04 04:51:13;;;;;;;11.27;5.10;;;;;;;-145.18;100.00;46900.66;6184991;23;20017;-75
2023/04/04 04:53:39;;;;;;;9.75;4.32;;;;;;;-145.18;100.00;46916.28;6184468;23;20036;-75
2023/04/04 04:56:04;;;;;;;13.90;5.07;;;;;;;-145.18;100.00;46894.81;6184997;23;20009;-75
2023/04/04 04:58:31;;;;;;;13.50;5.43;;;;;;;-145.18;100.00;46890.91;6183256;23;20009;-74
2023/04/04 05:00:56;;;;;;;19.83;6.40;;;;;;;-145.18;100.00;46892.84;6185104;23;20013;-74
2023/04/04 05:03:22;;;;;;;17.33;6.57;;;;;;;-145.18;100.00;46887.00;6184106;23;20414;-75
2023/04/04 05:05:47;;;;;;;11.40;5.17;;;;;;;-145.18;100.00;46877.22;6184981;23;20013;-75
2023/04/04 05:08:13;;;;;;;13.67;5.60;;;;;;;-145.18;100.00;46869.41;6183147;23;20013;-75
2023/04/04 05:10:38;;;;;;;11.63;5.03;;;;;;;-145.18;100.00;46847.91;6183187;23;20029;-75
2023/04/04 05:13:04;;;;;;;17.53;5.40;;;;;;;-145.18;100.00;46849.88;6174022;23;20047;-76
2023/04/04 05:15:29;;;;;;;15.13;4.97;;;;;;;-145.18;100.00;46855.72;6183020;23;20028;-75
2023/04/04 05:17:54;;;;;;;10.23;4.20;;;;;;;-145.18;100.00;46904.56;6182508;23;20009;-76
2023/04/04 05:20:20;;;;;;;14.17;4.90;;;;;;;-145.18;100.00;46875.28;6183444;23;20424;-76
2023/04/04 05:22:46;;;;;;;12.47;5.20;;;;;;;-145.18;100.00;46904.56;6176105;23;20024;-76
2023/04/04 05:25:12;;;;;;;10.50;4.33;;;;;;;-145.18;100.00;46892.84;6183374;23;20059;-77
2023/04/04 05:27:38;;;;;;;19.73;5.35;;;;;;;-145.18;100.00;46898.72;6182889;23;20398;-73
2023/04/04 05:30:04;;;;;;;11.77;4.38;;;;;;;-145.18;100.00;46890.91;6183534;23;20009;-73
2023/04/04 05:32:30;;;;;;;7.88;4.03;;;;;;;-145.18;100.00;46887.00;6183083;23;20454;-73
2023/04/04 05:34:55;;;;;;;10.37;4.67;;;;;;;-145.18;100.00;46894.81;6183306;23;20005;-73
2023/04/04 05:37:21;;;;;;;13.87;5.40;;;;;;;-145.18;100.00;46900.66;6183137;23;20029;-73
2023/04/04 05:39:46;;;;;;;11.43;4.83;;;;;;;-145.18;100.00;46902.63;6182558;23;20005;-73
2023/04/04 05:42:12;;;;;;;10.77;4.17;;;;;;;-145.18;100.00;46892.84;6180257;23;20013;-73
2023/04/04 05:44:37;;;;;;;7.80;4.47;;;;;;;-145.18;100.00;46894.81;6180539;23;20008;-73
2023/04/04 05:47:03;;;;;;;14.03;5.57;;;;;;;-145.18;100.00;46908.47;6183004;23;20020;-73
2023/04/04 05:49:28;;;;;;;27.00;8.73;;;;;;;-145.18;100.00;46910.44;6182591;23;20080;-73
2023/04/04 05:51:56;;;;;;;40.37;13.57;;;;;;;-145.18;100.00;46920.19;6182299;23;20051;-73
2023/04/04 05:54:22;;;;;;;21.08;7.80;;;;;;;-145.18;100.00;46898.72;6181683;23;20035;-73
2023/04/04 05:56:47;;;;;;;13.27;5.43;;;;;;;-145.18;100.00;46910.44;6180716;23;20078;-73
2023/04/04 05:59:13;;;;;;;10.77;4.93;;;;;;;-145.18;100.00;46908.47;6180752;23;20005;-73
2023/04/04 06:01:39;;;;;;;13.10;5.30;;;;;;;-145.18;100.00;46929.97;6181254;23;20453;-73
2023/04/04 06:04:05;;;;;;;14.20;5.63;;;;;;;-145.18;100.00;46935.81;6180852;23;20025;-73
2023/04/04 06:06:31;;;;;;;10.85;5.22;;;;;;;-145.18;100.00;46922.16;6181384;23;20015;-73
2023/04/04 06:08:57;;;;;;;15.80;5.55;;;;;;;-145.18;100.00;46969.03;6181135;23;20067;-73
2023/04/04 06:11:22;;;;;;;15.37;6.30;;;;;;;-145.18;100.00;46957.31;6181324;23;20409;-73
2023/04/04 06:13:48;;;;;;;12.53;5.50;;;;;;;-145.18;100.00;46969.03;6180039;23;20019;-74
2023/04/04 06:16:13;;;;;;;9.90;5.30;;;;;;;-145.18;100.00;47000.28;6182421;23;20005;-74
2023/04/04 06:18:39;;;;;;;9.37;5.10;;;;;;;-145.18;100.00;46998.34;6180475;23;20015;-74
2023/04/04 06:21:04;;;;;;;13.70;4.73;;;;;;;-145.18;100.00;46980.75;6182698;23;20067;-74
2023/04/04 06:23:30;;;;;;;25.80;5.87;;;;;;;-145.18;100.00;47045.22;6182345;23;20382;-73
2023/04/04 06:25:55;;;;;;;14.67;5.43;;;;;;;-145.18;100.00;47068.66;6182341;23;20011;-73
2023/04/04 06:28:21;;;;;;;11.20;5.13;;;;;;;-145.18;100.00;47103.81;6181571;23;20096;-73
2023/04/04 06:30:46;;;;;;;14.37;4.50;;;;;;;-145.18;100.00;47121.41;6182230;23;20016;-73
2023/04/04 06:33:12;;;;;;;16.40;5.50;;;;;;;-145.18;100.00;47160.47;6182310;23;20005;-73
2023/04/04 06:35:37;;;;;;;10.73;5.10;;;;;;;-145.18;100.00;47219.09;6182241;23;20033;-73
2023/04/04 06:38:06;;;;;;;13.00;4.80;;;;;;;-145.18;100.00;47310.91;6182296;23;20017;-73
2023/04/04 06:40:31;;;;;;;10.70;5.22;;;;;;;-145.18;100.00;47279.66;6182142;23;19993;-74
2023/04/04 06:42:59;;;;;;;8.70;4.43;;;;;;;-145.18;100.00;47342.16;6181741;23;20032;-73
2023/04/04 06:45:26;;;;;;;8.85;5.28;;;;;;;-145.18;100.00;47478.94;6182277;23;20020;-73
2023/04/04 06:47:53;;;;;;;9.05;4.80;;;;;;;-145.18;100.00;47488.69;6181729;23;20060;-73
2023/04/04 06:50:19;;;;;;;13.25;4.90;;;;;;;-145.18;100.00;47547.31;6182716;23;20008;-74
2023/04/04 06:52:45;;;;;;;11.50;4.40;;;;;;;-145.18;100.00;47627.41;6181728;23;20019;-74
2023/04/04 06:55:12;;;;;;;11.57;4.80;;;;;;;-145.18;100.00;47676.25;6182735;23;20037;-74
2023/04/04 06:57:38;;;;;;;12.00;5.60;;;;;;;-145.18;100.00;47660.63;6181485;23;20049;-74
2023/04/04 07:00:04;;;;;;;8.88;4.50;;;;;;;-145.18;100.00;47674.31;6175214;23;20009;-74
2023/04/04 07:02:30;;;;;;;10.45;4.93;;;;;;;-145.18;100.00;47639.13;6181636;23;20155;-74
2023/04/04 07:04:56;;;;;;;11.73;5.00;;;;;;;-145.18;100.00;47631.31;6182146;23;20032;-74
2023/04/04 07:07:21;;;;;;;16.50;5.17;;;;;;;-145.18;100.00;47568.81;6182131;23;20029;-75
2023/04/04 07:09:47;;;;;;;10.07;4.93;;;;;;;-145.18;100.00;47578.56;6181572;23;20001;-74
2023/04/04 07:12:13;;;;;;;10.15;5.30;;;;;;;-145.18;100.00;47650.88;6182010;23;20019;-75
2023/04/04 07:14:38;;;;;;;14.57;5.07;;;;;;;-145.18;100.00;47738.78;6181492;23;20080;-75
2023/04/04 07:17:03;;;;;;;10.47;4.63;;;;;;;-145.18;100.00;47727.06;6182323;23;20427;-75
2023/04/04 07:19:29;;;;;;;11.33;5.37;;;;;;;-145.18;100.00;47748.56;6181570;23;20005;-74
2023/04/04 07:21:55;;;;;;;9.47;4.73;;;;;;;-145.18;100.00;47760.28;6179546;23;20419;-75
2023/04/04 07:24:21;;;;;;;9.47;4.83;;;;;;;-145.18;100.00;47762.22;6181301;23;20060;-74
2023/04/04 07:26:46;;;;;;;13.43;5.67;;;;;;;-145.18;100.00;47740.75;6181358;23;20222;-75
2023/04/04 07:29:12;;;;;;;10.83;4.90;;;;;;;-145.18;100.00;47676.25;6181499;23;20096;-75
2023/04/04 07:31:37;;;;;;;11.97;5.30;;;;;;;-145.18;100.00;47656.72;6181163;23;20044;-76
2023/04/04 07:34:03;;;;;;;16.47;5.07;;;;;;;-145.18;100.00;47668.44;6181206;23;20019;-76
2023/04/04 07:36:28;;;;;;;8.80;5.53;;;;;;;-145.18;100.00;47658.69;6181954;23;20032;-76
2023/04/04 07:38:54;;;;;;;15.17;5.00;;;;;;;-145.18;100.00;47648.91;6181287;23;20036;-77
2023/04/04 07:41:20;;;;;;;13.27;4.97;;;;;;;-145.18;100.00;47656.72;6155843;23;20009;-78
2023/04/04 07:43:46;;;;;;;8.27;5.23;;;;;;;-145.18;100.00;47633.28;6181332;23;20337;-79
2023/04/04 07:46:11;;;;;;;14.37;5.20;;;;;;;-145.18;100.00;47629.38;6181368;23;20262;-81
2023/04/04 07:48:37;;;;;;;12.17;4.60;;;;;;;-145.18;100.00;47631.31;6181375;23;20001;-82
2023/04/04 07:51:03;;;;;;;8.90;4.43;;;;;;;-145.18;100.00;47607.88;6181653;23;20448;-82
2023/04/04 07:53:29;;;;;;;9.37;4.63;;;;;;;-145.18;100.00;47621.56;6181601;23;20062;-84
2023/04/04 07:55:54;;;;;;;9.93;4.80;;;;;;;-145.18;100.00;47600.06;6181393;23;20317;-85
2023/04/04 07:58:21;;;;;;;8.30;4.63;;;;;;;-145.18;100.00;47619.59;6180860;23;20043;-83
2023/04/04 08:00:46;;;;;;;7.37;4.23;;;;;;;-145.18;100.00;47621.56;6179353;23;20433;-82
2023/04/04 08:03:12;;;;;;;9.87;4.30;;;;;;;-145.18;100.00;47605.94;6180579;23;20255;-82
2023/04/04 08:05:37;;;;;;;9.27;4.50;;;;;;;-145.18;100.00;47600.06;6181502;23;20088;-82
2023/04/04 08:08:03;;;;;;;11.53;4.60;;;;;;;-145.18;100.00;47578.56;6181291;23;20012;-81
2023/04/04 08:10:28;;;;;;;8.47;4.77;;;;;;;-145.18;100.00;47617.66;6181289;23;20032;-81
2023/04/04 08:12:54;;;;;;;7.90;4.60;;;;;;;-145.18;100.00;47602.00;6180541;23;20009;-81
2023/04/04 08:15:19;;;;;;;8.80;4.50;;;;;;;-145.18;100.00;47584.44;6180122;23;20012;-81
2023/04/04 08:17:44;;;;;;;11.43;4.80;;;;;;;-145.18;100.00;47582.47;6180940;23;20020;-82
2023/04/04 08:20:11;;;;;;;6.53;4.10;;;;;;;-145.18;100.00;47580.53;6181673;23;20009;-82
2023/04/04 08:22:37;;;;;;;6.43;4.33;;;;;;;-145.18;100.00;47572.72;6180902;23;20013;-83
2023/04/04 08:25:03;;;;;;;10.87;4.77;;;;;;;-145.18;100.00;47561.00;6181594;23;20255;-83
2023/04/04 08:27:28;;;;;;;12.23;4.60;;;;;;;-145.18;100.00;47578.56;6181464;23;20239;-83
2023/04/04 08:29:54;;;;;;;8.77;4.10;;;;;;;-145.18;100.00;47559.03;6181026;23;20231;-82
2023/04/04 08:32:19;;;;;;;9.90;3.83;;;;;;;-145.18;100.00;47535.59;6181341;23;20473;-83
2023/04/04 08:34:45;;;;;;;10.23;4.93;;;;;;;-145.18;100.00;47555.13;6180834;23;20009;-83
2023/04/04 08:37:10;;;;;;;12.57;4.30;;;;;;;-145.18;100.00;47557.06;6179922;23;20012;-84
2023/04/04 08:39:36;;;;;;;14.13;4.50;;;;;;;-145.18;100.00;47531.69;6180719;23;20036;-83
2023/04/04 08:42:06;;;;;;;10.23;4.37;;;;;;;-145.18;100.00;47561.00;6179609;23;20055;-82
2023/04/04 08:44:33;;;;;;;8.60;3.73;;;;;;;-145.18;100.00;47564.91;6182543;23;20286;-83
2023/04/04 08:47:07;;;;;;;8.83;4.03;;;;;;;-145.18;100.00;47562.94;6183719;23;20664;-82
2023/04/04 08:49:40;;;;;;;8.80;3.93;;;;;;;-145.18;100.00;47553.16;6182746;23;20235;-83
2023/04/04 08:52:07;;;;;;;8.80;3.90;;;;;;;-145.18;100.00;47539.50;6182855;23;20247;-84
2023/04/04 08:54:34;;;;;;;13.20;4.13;;;;;;;-145.18;100.00;47537.53;6182663;23;20794;-84
2023/04/04 08:57:00;;;;;;;9.33;3.70;;;;;;;-145.18;100.00;47516.06;6183567;23;20739;-84
2023/04/04 08:59:26;;;;;;;10.33;3.03;;;;;;;-145.18;100.00;47529.72;6182955;23;20274;-84
2023/04/04 09:02:13;;;;;;;8.77;3.33;;;;;;;-145.18;100.00;47531.69;6182167;23;20226;-84
2023/04/04 09:04:38;;;;;;;5.77;2.97;;;;;;;-145.18;100.00;47523.88;6183090;23;20013;-83
2023/04/04 09:07:04;;;;;;;10.27;3.40;;;;;;;-145.18;100.00;47510.19;6183470;23;20239;-84
2023/04/04 09:09:31;;;;;;;12.03;3.47;;;;;;;-145.18;100.00;47494.56;6182646;23;20017;-84
2023/04/04 09:12:00;;;;;;;5.47;2.60;;;;;;;-145.18;100.00;47482.84;6182641;23;20013;-85
2023/04/04 09:14:26;;;;;;;5.43;2.73;;;;;;;-145.18;100.00;47484.78;6182808;23;20282;-86
2023/04/04 09:16:52;;;;;;;8.03;2.90;;;;;;;-145.18;100.00;47502.38;6183078;23;20231;-86
2023/04/04 09:19:17;;;;;;;11.47;2.83;;;;;;;-145.18;100.00;47506.28;6183052;23;20032;-85
2023/04/04 09:21:47;;;;;;;5.67;2.60;;;;;;;-145.18;100.00;47500.41;6182774;23;20239;-84
2023/04/04 09:24:13;;;;;;;6.40;2.43;;;;;;;-145.18;100.00;47476.97;6183010;23;20009;-84
2023/04/04 09:26:52;;;;;;;6.43;2.27;;;;;;;-145.18;100.00;47504.31;6182854;23;20623;-83
2023/04/04 09:29:19;;;;;;;8.33;2.70;;;;;;;-145.18;100.00;47518.00;6183417;23;20695;-85
2023/04/04 09:31:45;;;;;;;10.77;2.90;;;;;;;-145.18;100.00;47484.78;6182966;23;20258;-85
2023/04/04 09:34:16;;;;;;;6.93;2.80;;;;;;;-145.18;100.00;47480.88;6182992;23;20280;-84
2023/04/04 09:36:43;;;;;;;6.27;2.50;;;;;;;-145.18;100.00;47494.56;6182821;23;20230;-86
2023/04/04 09:39:09;;;;;;;11.63;3.17;;;;;;;-145.18;100.00;47480.88;6183450;23;20239;-85
2023/04/04 09:41:39;;;;;;;5.93;2.67;;;;;;;-145.18;100.00;47473.06;6182734;23;20322;-86
2023/04/04 09:44:06;;;;;;;6.50;2.93;;;;;;;-145.18;100.00;47484.78;6183967;23;20301;-86
2023/04/04 09:46:33;;;;;;;10.00;2.93;;;;;;;-145.18;100.00;47490.66;6184082;23;20230;-85
2023/04/04 09:48:59;;;;;;;5.20;2.70;;;;;;;-145.18;100.00;47488.69;6182910;23;20676;-86
2023/04/04 09:51:33;;;;;;;7.90;3.00;;;;;;;-145.18;100.00;47500.41;6185043;23;20340;-85
2023/04/04 09:53:58;;;;;;;13.87;3.40;;;;;;;-145.18;100.00;47463.31;6184145;23;20234;-85
2023/04/04 09:56:26;;;;;;;8.33;3.10;;;;;;;-145.18;100.00;47461.34;6184343;23;20756;-85
2023/04/04 09:58:52;;;;;;;4.87;2.90;;;;;;;-145.18;100.00;47465.25;6183763;23;20032;-87
2023/04/04 10:01:17;;;;;;;7.87;2.87;;;;;;;-145.18;100.00;47441.81;6182739;23;20224;-86
2023/04/04 10:03:51;;;;;;;6.10;2.90;;;;;;;-145.18;100.00;47465.25;6183224;23;20584;-85
2023/04/04 10:06:17;;;;;;;4.60;2.80;;;;;;;-145.18;100.00;47482.84;6184629;23;20032;-87
2023/04/04 10:08:42;;;;;;;8.37;2.80;;;;;;;-145.18;100.00;47447.66;6179570;23;20560;-84
2023/04/04 10:11:08;;;;;;;7.37;3.10;;;;;;;-145.18;100.00;47476.97;6183868;23;20032;-83
2023/04/04 10:13:35;;;;;;;6.23;2.60;;;;;;;-145.18;100.00;47457.44;6184216;23;20038;-85
2023/04/04 10:16:03;;;;;;;5.33;2.80;;;;;;;-145.18;100.00;47422.28;6184728;23;20020;-86
2023/04/04 10:18:31;;;;;;;10.57;3.40;;;;;;;-145.18;100.00;47434.00;6183130;23;20231;-83
2023/04/04 10:20:58;;;;;;;11.67;3.10;;;;;;;-145.18;100.00;47447.66;6186281;23;20239;-85
2023/04/04 10:23:27;;;;;;;6.83;2.60;;;;;;;-145.18;100.00;47418.38;6182510;23;20731;-85
2023/04/04 10:25:57;;;;;;;6.67;2.67;;;;;;;-145.18;100.00;47426.19;6181914;23;20238;-83
2023/04/04 10:28:24;;;;;;;10.60;2.83;;;;;;;-145.18;100.00;47439.84;6183894;23;20234;-85
2023/04/04 10:30:59;;;;;;;6.43;2.57;;;;;;;-145.18;100.00;47437.91;6183190;23;20239;-85
2023/04/04 10:33:24;;;;;;;5.67;3.30;;;;;;;-145.18;100.00;47426.19;6184259;23;20289;-85
2023/04/04 10:35:53;;;;;;;7.50;2.90;;;;;;;-145.18;100.00;47447.66;6182583;23;20326;-84
2023/04/04 10:38:22;;;;;;;7.17;2.90;;;;;;;-145.18;100.00;47439.84;6181719;23;20012;-78
2023/04/04 10:40:50;;;;;;;6.27;3.37;;;;;;;-145.18;100.00;47437.91;6181070;23;20231;-79
2023/04/04 10:43:23;;;;;;;11.00;3.40;;;;;;;-145.18;100.00;47410.56;6181968;23;20246;-79
2023/04/04 10:45:50;;;;;;;7.90;3.20;;;;;;;-145.18;100.00;47408.59;6181670;23;20692;-79
2023/04/04 10:48:16;;;;;;;6.00;2.60;;;;;;;-145.18;100.00;47406.63;6182201;23;20534;-79
2023/04/04 10:50:42;;;;;;;5.27;3.10;;;;;;;-145.18;100.00;47424.22;6181289;23;20269;-78
2023/04/04 10:53:08;;;;;;;7.80;3.47;;;;;;;-145.18;100.00;47402.72;6182089;23;20238;-81
2023/04/04 10:55:35;;;;;;;5.73;3.30;;;;;;;-145.18;100.00;47424.22;6181263;23;20005;-81
2023/04/04 10:58:01;;;;;;;8.17;3.20;;;;;;;-145.18;100.00;47414.47;6182292;23;20243;-82
2023/04/04 11:00:27;;;;;;;9.60;3.40;;;;;;;-145.18;100.00;47426.19;6181961;23;20246;-82
2023/04/04 11:02:56;;;;;;;8.33;3.60;;;;;;;-145.18;100.00;47404.69;6181273;23;20254;-81
2023/04/04 11:05:26;;;;;;;5.90;3.30;;;;;;;-145.18;100.00;47359.75;6181103;23;20024;-82